martes, 5 de junio de 2012

Temporal de nieve provocó cancelaciones de vuelos en Tierra del Fuego


www.aa2000.com.ar


Un temporal de nieve con fuertes vientos afectaba hoy a la región sur de Tierra del Fuego por este motivo se cancelaron dos vuelos a Ushuaia (AR1854 y AR1896 segun la pagina de AA2000) y hubo un  tercer vuelo con escala en Rio Gallegos, es muy probable que tambien haya cancelado.
El aeropuerto llego a estar bajo minimos meteorologicos, debido a las malas condiciones se llego a la suspension de clases y el municipio sugirio permanecer en las viviendas para evitar accidentes. El pronostico parece no ayudar con respecto a un mejoramiento.








Uno de los METAR publicados por USU. Fuente: www.smn.gov.ar

05 - 02:00 METAR SAWH 050200Z 23024G30KT 0800 SN OVC007 M01/M03 Q0997 RE. BAJO MINIMO VFR Y ARRIBOS =

No hay comentarios.: